Time;durP1;ratioP1;P1;durP2;ratioP2;P2;SDS_P1;SDS_P2;PMS_P1;PMS_P2;Temp;Humidity;BMP_temperature;BMP_pressure;BME280_temperature;BME280_humidity;BME280_pressure;Samples;Min_cycle;Max_cycle;Signal;HPM_P1;HPM_P2
2022/05/27 00:03:59;;;;;;;0.50;0.40;;;19.20;86.20;;;18.13;62.09;100485.94;10229451;28;96986;-87
2022/05/27 00:09:02;;;;;;;0.55;0.10;;;19.20;86.40;;;18.12;62.21;100478.94;10249004;28;96610;-87
2022/05/27 00:14:05;;;;;;;0.10;0.10;;;19.20;86.50;;;18.12;62.13;100479.75;10215280;28;96589;-87
2022/05/27 00:19:08;;;;;;;0.03;0.03;;;19.20;86.60;;;18.13;62.49;100484.09;10249864;28;97365;-87
2022/05/27 00:24:11;;;;;;;0.10;0.10;;;19.30;87.20;;;18.13;62.66;100476.03;10258220;28;96551;-87
2022/05/27 00:29:14;;;;;;;0.10;0.10;;;19.30;87.70;;;18.13;62.87;100470.63;10302870;28;97215;-87
2022/05/27 00:34:17;;;;;;;0.05;0.05;;;19.30;88.00;;;18.13;62.44;100467.13;10301808;28;95789;-86
2022/05/27 00:39:20;;;;;;;0.32;0.20;;;19.20;88.10;;;18.10;62.80;100478.28;10262113;28;96556;-87
2022/05/27 00:44:23;;;;;;;0.00;0.00;;;19.20;88.10;;;18.06;62.57;100469.84;10247772;28;96789;-86
2022/05/27 00:49:27;;;;;;;0.20;0.10;;;19.20;88.30;;;18.03;62.58;100464.84;10246780;28;96665;-87
2022/05/27 00:54:31;;;;;;;0.20;0.20;;;19.20;88.50;;;18.00;63.13;100464.47;10219756;28;96850;-86
2022/05/27 01:00:00;;;;;;;0.40;0.20;;;19.10;88.80;;;17.94;63.00;100466.13;10243046;28;97566;-86
2022/05/27 01:05:08;;;;;;;0.20;0.10;;;19.10;89.10;;;17.88;63.14;100462.41;10235407;28;96741;-87
2022/05/27 01:10:18;;;;;;;0.10;0.10;;;19.10;89.40;;;17.82;63.67;100465.94;10275014;28;96617;-87
2022/05/27 01:16:04;;;;;;;0.22;0.20;;;19.00;89.80;;;17.77;63.56;100463.06;10254963;28;96732;-87
2022/05/27 01:21:17;;;;;;;0.13;0.10;;;18.90;90.00;;;17.70;63.91;100464.91;10250946;28;97970;-87
2022/05/27 01:26:41;;;;;;;0.85;0.28;;;18.80;90.20;;;17.62;64.09;100465.09;10243181;28;96751;-87
2022/05/27 01:31:49;;;;;;;0.43;0.20;;;18.80;90.30;;;17.56;64.29;100460.53;10255259;28;96721;-87
2022/05/27 01:37:22;;;;;;;0.40;0.22;;;18.70;90.50;;;17.45;64.46;100456.59;10254804;28;96679;-87
2022/05/27 01:42:33;;;;;;;0.22;0.22;;;18.60;90.80;;;17.34;64.61;100452.69;10267588;28;96861;-87
2022/05/27 01:47:46;;;;;;;0.43;0.30;;;18.60;91.00;;;17.27;65.19;100445.66;10237379;28;96702;-87
2022/05/27 01:53:25;;;;;;;0.35;0.20;;;18.50;91.30;;;17.15;65.60;100447.28;10254473;28;96997;-87
2022/05/27 01:58:47;;;;;;;0.20;0.13;;;18.30;91.70;;;17.03;65.91;100450.59;10261592;28;96876;-87
2022/05/27 02:04:03;;;;;;;0.38;0.10;;;18.20;92.20;;;16.90;66.38;100447.88;10265355;28;96705;-88
2022/05/27 02:09:25;;;;;;;0.13;0.13;;;18.10;92.60;;;16.71;66.56;100454.00;10233067;28;96833;-88
2022/05/27 02:14:51;;;;;;;0.10;0.10;;;17.90;92.90;;;16.55;66.80;100447.97;10239035;28;98027;-87
2022/05/27 02:20:28;;;;;;;0.20;0.20;;;17.80;92.90;;;16.41;66.91;100448.91;10263568;28;96891;-87
2022/05/27 02:25:37;;;;;;;0.95;0.20;;;17.60;93.10;;;16.29;67.17;100456.69;10255485;28;96471;-87
2022/05/27 02:30:48;;;;;;;0.10;0.10;;;17.50;93.70;;;16.16;67.67;100451.28;10244546;28;98317;-87
2022/05/27 02:35:55;;;;;;;0.10;0.10;;;17.40;94.00;;;16.10;67.96;100456.59;10256672;28;96588;-87
2022/05/27 02:41:33;;;;;;;1.65;0.25;;;17.30;94.50;;;15.99;68.21;100455.28;10252780;28;96566;-87
2022/05/27 02:46:56;;;;;;;0.03;0.03;;;17.20;94.80;;;15.87;68.75;100449.66;10268969;28;96657;-87
2022/05/27 02:52:40;;;;;;;0.57;0.32;;;17.10;95.40;;;15.80;69.07;100446.09;10262408;28;96658;-87
2022/05/27 02:57:49;;;;;;;0.45;0.45;;;17.00;95.80;;;15.76;69.34;100452.88;10275773;28;96609;-88
2022/05/27 03:02:53;;;;;;;0.10;0.10;;;17.00;96.50;;;15.72;69.42;100462.34;10232820;28;96929;-87
2022/05/27 03:08:17;;;;;;;0.20;0.20;;;16.90;96.60;;;15.66;69.08;100465.81;10228525;28;96738;-87
2022/05/27 03:13:51;;;;;;;0.00;0.00;;;16.90;96.60;;;15.63;68.75;100480.38;10267700;28;96916;-87
2022/05/27 03:19:30;;;;;;;0.20;0.20;;;16.80;96.20;;;15.60;68.71;100462.00;10245541;28;96716;-86
2022/05/27 03:24:56;;;;;;;0.15;0.10;;;16.80;96.40;;;15.61;68.98;100468.19;10239483;28;96648;-87
2022/05/27 03:30:22;;;;;;;0.10;0.10;;;16.80;96.90;;;15.63;69.29;100469.69;10218708;28;96645;-87
2022/05/27 03:35:49;;;;;;;0.38;0.35;;;16.80;97.20;;;15.67;69.31;100475.50;10249737;28;97521;-87
2022/05/27 03:41:32;;;;;;;0.08;0.08;;;16.80;97.40;;;15.71;69.48;100480.28;10265196;28;97133;-87
2022/05/27 03:46:38;;;;;;;0.32;0.20;;;16.80;98.10;;;15.71;69.82;100482.94;10248676;28;96651;-87
2022/05/27 03:52:14;;;;;;;0.75;0.00;;;16.80;98.40;;;15.70;69.83;100475.91;10254702;28;96874;-87
2022/05/27 03:57:17;;;;;;;0.38;0.15;;;16.80;98.60;;;15.71;69.35;100477.59;10250537;28;96542;-87
2022/05/27 04:02:20;;;;;;;0.28;0.20;;;16.90;98.00;;;15.79;68.95;100474.75;10273568;28;97309;-87
2022/05/27 04:07:23;;;;;;;0.30;0.20;;;16.90;97.70;;;15.91;68.52;100475.03;10250586;28;97172;-87
2022/05/27 04:12:26;;;;;;;0.50;0.22;;;17.00;97.50;;;16.06;68.16;100472.25;10233871;28;96648;-86
2022/05/27 04:17:31;;;;;;;0.20;0.10;;;17.20;97.40;;;16.20;68.15;100465.94;10231633;28;96713;-87
2022/05/27 04:22:36;;;;;;;0.38;0.20;;;17.30;97.40;;;16.39;67.61;100471.59;10265073;28;96627;-88
2022/05/27 04:27:43;;;;;;;0.47;0.30;;;17.40;96.90;;;16.59;67.08;100465.28;10263605;28;96708;-87
2022/05/27 04:32:46;;;;;;;0.32;0.30;;;17.70;96.80;;;16.83;66.69;100463.94;10260745;28;96750;-87
2022/05/27 04:37:49;;;;;;;0.03;0.00;;;17.90;96.40;;;17.01;65.69;100458.00;10256479;28;96698;-87
2022/05/27 04:42:52;;;;;;;0.15;0.10;;;18.10;95.60;;;17.10;65.54;100464.03;10272598;28;97060;-87
2022/05/27 04:47:55;;;;;;;0.00;0.00;;;18.20;95.50;;;17.22;65.56;100462.41;10254559;28;97314;-87
2022/05/27 04:53:00;;;;;;;0.10;0.10;;;18.30;95.60;;;17.35;65.96;100459.72;10253923;28;97508;-87
2022/05/27 04:58:04;;;;;;;0.10;0.10;;;18.40;95.90;;;17.55;64.81;100457.03;10222098;28;97473;-87
2022/05/27 05:03:07;;;;;;;0.20;0.20;;;18.60;95.10;;;17.75;63.90;100445.47;10193359;28;96675;-88
2022/05/27 05:08:33;;;;;;;0.25;0.20;;;18.80;94.50;;;17.99;63.33;100447.47;10210972;28;97519;-87
2022/05/27 05:13:36;;;;;;;0.00;0.00;;;19.00;94.20;;;18.18;62.19;100452.00;10215360;28;96668;-89
2022/05/27 05:18:39;;;;;;;0.22;0.10;;;19.20;93.50;;;18.37;60.11;100449.47;10235329;28;97452;-88
2022/05/27 05:23:43;;;;;;;0.30;0.17;;;19.40;91.80;;;18.51;59.27;100461.00;10219508;28;97565;-88
2022/05/27 05:28:45;;;;;;;0.00;0.00;;;19.60;90.80;;;18.59;57.03;100458.91;10214976;28;96490;-89
2022/05/27 05:33:48;;;;;;;0.45;0.43;;;19.60;87.30;;;18.67;56.61;100450.59;10234662;28;96727;-87
2022/05/27 05:38:51;;;;;;;0.20;0.10;;;19.70;86.70;;;18.79;55.67;100448.06;10207400;28;98011;-87
2022/05/27 05:43:55;;;;;;;0.30;0.30;;;19.80;86.10;;;18.94;55.45;100440.50;10204231;28;96645;-87
2022/05/27 05:48:58;;;;;;;0.03;0.03;;;20.00;86.50;;;19.17;56.46;100439.94;10242333;28;97152;-87
2022/05/27 05:54:02;;;;;;;0.10;0.10;;;20.20;87.40;;;19.30;55.54;100444.41;10215969;28;96689;-87
2022/05/27 05:59:05;;;;;;;0.10;0.10;;;20.30;85.00;;;19.42;54.53;100433.72;10239662;28;97512;-87
2022/05/27 06:04:09;;;;;;;0.10;0.10;;;20.50;82.50;;;19.52;54.00;100434.06;10255503;28;96477;-87
2022/05/27 06:09:12;;;;;;;0.00;0.00;;;20.60;82.10;;;19.67;52.39;100433.75;10235099;28;96765;-80
2022/05/27 06:14:15;;;;;;;0.08;0.00;;;20.70;79.10;;;19.80;51.60;100444.44;10263701;28;97133;-88
2022/05/27 06:19:18;;;;;;;0.00;0.00;;;20.80;79.70;;;19.87;50.17;100442.50;10254863;28;96732;-89
2022/05/27 06:24:21;;;;;;;0.00;0.00;;;20.90;74.90;;;19.92;49.69;100433.75;10254403;28;97869;-89
2022/05/27 06:34:45;;;;;;;0.00;0.00;;;21.00;75.30;;;20.12;48.29;100436.22;10211128;28;96916;-89
2022/05/27 06:39:49;;;;;;;0.57;0.10;;;21.10;71.70;;;20.18;48.76;100435.31;10254561;28;96636;-87
2022/05/27 06:44:52;;;;;;;0.00;0.00;;;21.20;72.90;;;20.26;49.49;100419.63;10237147;28;96542;-89
2022/05/27 06:49:56;;;;;;;0.00;0.00;;;21.30;73.90;;;20.43;49.40;100422.53;10268882;28;96477;-88
2022/05/27 06:54:59;;;;;;;0.00;0.00;;;21.40;73.60;;;20.54;47.83;100419.09;10253925;28;96537;-88
2022/05/27 07:00:07;;;;;;;0.55;0.55;;;21.50;71.60;;;20.62;47.38;100415.25;10235096;28;96617;-88
2022/05/27 07:05:11;;;;;;;0.00;0.00;;;21.60;70.00;;;20.71;48.36;100410.38;10251224;28;97510;-88
2022/05/27 07:10:13;;;;;;;0.15;0.05;;;21.70;71.90;;;20.84;47.15;100407.50;10253055;28;97026;-89
2022/05/27 07:15:16;;;;;;;0.40;0.40;;;21.80;69.70;;;20.83;46.72;100398.56;10255412;28;96497;-90
2022/05/27 07:20:19;;;;;;;0.03;0.00;;;21.80;69.20;;;20.97;47.71;100403.75;10251915;28;97145;-89
2022/05/27 07:25:35;;;;;;;0.00;0.00;;;22.00;70.50;;;21.05;45.98;100393.47;10252499;28;96474;-87
2022/05/27 07:30:42;;;;;;;0.00;0.00;;;22.10;68.30;;;21.16;46.44;100388.28;10265944;28;96612;-89
2022/05/27 07:35:45;;;;;;;0.00;0.00;;;22.10;68.30;;;21.30;46.21;100387.06;10268792;28;97298;-89
2022/05/27 07:40:48;;;;;;;0.43;0.20;;;22.30;67.90;;;21.37;45.60;100380.47;10257358;28;98271;-89
2022/05/27 07:45:51;;;;;;;0.00;0.00;;;22.30;66.80;;;21.45;45.64;100387.41;10249992;28;97767;-90
2022/05/27 07:50:54;;;;;;;0.32;0.10;;;22.40;67.30;;;21.56;45.63;100383.88;10249228;28;96621;-89
2022/05/27 07:55:58;;;;;;;0.75;0.30;;;22.50;67.10;;;21.69;45.41;100382.81;10264240;28;96635;-89
2022/05/27 08:01:02;;;;;;;0.10;0.10;;;22.60;67.50;;;21.81;45.08;100372.81;10224135;28;96685;-89
2022/05/27 08:06:07;;;;;;;0.17;0.17;;;22.70;67.00;;;22.01;45.08;100372.44;10221897;28;96611;-90
2022/05/27 08:11:10;;;;;;;0.00;0.00;;;22.90;65.30;;;22.11;45.56;100375.38;10251141;28;96627;-90
2022/05/27 08:16:13;;;;;;;0.03;0.00;;;23.00;66.40;;;22.30;45.92;100367.06;10251111;28;96692;-87
2022/05/27 08:21:16;;;;;;;0.30;0.10;;;23.20;67.40;;;22.44;44.77;100369.28;10266780;28;96499;-90
2022/05/27 08:26:19;;;;;;;0.08;0.08;;;23.40;65.40;;;22.45;44.45;100364.66;10249753;28;96706;-90
2022/05/27 08:31:22;;;;;;;0.60;0.32;;;23.50;65.40;;;22.49;44.57;100376.69;10233337;28;96775;-89
2022/05/27 08:42:14;;;;;;;0.05;0.05;;;23.50;64.60;;;22.62;43.73;100349.28;10261515;28;96460;-88
2022/05/27 08:47:42;;;;;;;0.00;0.00;;;23.60;64.20;;;22.74;44.38;100338.38;10251556;28;96588;-87
2022/05/27 08:52:55;;;;;;;0.10;0.10;;;23.60;64.90;;;22.90;44.26;100313.22;10249506;28;97088;-88
2022/05/27 09:03:31;;;;;;;0.30;0.20;;;24.00;63.60;;;23.21;43.09;100311.81;10261959;28;96585;-89
2022/05/27 09:08:33;;;;;;;0.17;0.15;;;24.10;63.90;;;23.40;43.29;100312.38;10264418;28;96844;-87
2022/05/27 09:13:45;;;;;;;0.15;0.10;;;24.30;64.00;;;23.50;41.81;100312.47;10251196;28;96574;-90
2022/05/27 09:19:12;;;;;;;0.25;0.22;;;24.40;61.30;;;23.61;41.24;100307.19;10267872;28;96588;-89
2022/05/27 09:24:53;;;;;;;0.20;0.20;;;24.50;60.50;;;23.65;41.90;100287.50;10252933;28;96529;-90
2022/05/27 09:30:11;;;;;;;0.00;0.00;;;24.60;61.10;;;23.60;41.75;100286.59;10240173;28;96582;-90
2022/05/27 09:35:19;;;;;;;0.35;0.35;;;24.50;61.00;;;23.50;42.25;100284.53;10255387;28;97047;-89
2022/05/27 09:41:23;;;;;;;0.20;0.10;;;24.50;61.10;;;23.45;42.25;100281.75;10256921;28;96674;-89
2022/05/27 09:46:31;;;;;;;0.17;0.10;;;24.40;60.70;;;23.61;43.28;100270.03;10251614;28;96680;-89
2022/05/27 09:51:34;;;;;;;0.45;0.15;;;24.50;63.10;;;23.80;42.54;100267.03;10259235;28;96626;-89
2022/05/27 09:56:54;;;;;;;0.20;0.10;;;24.70;62.20;;;23.91;41.95;100264.19;10257059;28;96531;-89
2022/05/27 10:02:26;;;;;;;0.08;0.08;;;24.80;60.80;;;24.02;41.46;100248.84;10270147;28;96654;-90
2022/05/27 10:07:44;;;;;;;0.03;0.00;;;24.90;60.90;;;24.11;41.99;100243.78;10254533;28;98520;-89
2022/05/27 10:12:48;;;;;;;0.10;0.05;;;25.00;61.70;;;24.20;41.61;100240.34;10243533;28;96631;-89
2022/05/27 10:17:51;;;;;;;0.00;0.00;;;25.10;60.90;;;24.25;40.93;100242.31;10270314;28;96638;-90
2022/05/27 10:23:26;;;;;;;0.13;0.10;;;25.20;60.00;;;24.16;41.34;100219.38;10255694;28;96572;-88
2022/05/27 10:28:33;;;;;;;0.10;0.10;;;25.20;60.80;;;24.28;40.76;100212.72;10212655;28;96616;-90
2022/05/27 10:33:47;;;;;;;0.22;0.17;;;25.20;59.00;;;24.42;40.82;100210.44;10216439;28;96560;-88
2022/05/27 10:39:06;;;;;;;0.00;0.00;;;25.30;59.60;;;24.67;39.72;100200.84;10253484;28;96708;-86
2022/05/27 10:45:02;;;;;;;0.00;0.00;;;25.50;58.10;;;24.83;39.38;100189.84;10236166;28;96546;-89
2022/05/27 10:50:39;;;;;;;0.13;0.10;;;25.70;57.80;;;25.07;38.92;100187.56;10234880;28;96748;-90
2022/05/27 10:55:51;;;;;;;0.20;0.10;;;25.90;56.50;;;24.92;38.47;100181.19;10266859;28;96661;-91
2022/05/27 11:07:23;;;;;;;0.20;0.05;;;25.90;57.70;;;25.49;39.01;100156.72;10253472;28;96698;-89
2022/05/27 11:18:29;;;;;;;0.10;0.10;;;26.50;56.40;;;25.82;36.41;100147.31;10251740;28;97773;-89
2022/05/27 11:24:04;;;;;;;0.10;0.10;;;26.60;54.80;;;25.85;37.50;100130.44;10253364;28;96524;-88
2022/05/27 11:29:28;;;;;;;0.00;0.00;;;26.70;56.00;;;25.92;37.47;100124.72;10229859;28;96723;-89
2022/05/27 11:34:57;;;;;;;0.10;0.10;;;26.80;55.60;;;26.07;37.74;100115.75;10237070;28;96601;-89
2022/05/27 11:40:28;;;;;;;0.17;0.17;;;26.90;55.30;;;26.24;38.44;100105.38;10247256;28;96535;-89
2022/05/27 11:45:32;;;;;;;0.08;0.05;;;27.10;56.40;;;26.45;38.44;100086.31;10200693;28;96914;-89
2022/05/27 11:51:51;;;;;;;0.10;0.10;;;27.30;56.60;;;26.77;38.13;100081.34;10254009;28;97290;-89
2022/05/27 11:57:35;;;;;;;1.90;0.85;;;27.60;56.50;;;26.95;36.69;100074.44;10149735;28;96715;-90
2022/05/27 12:02:47;;;;;;;1.17;0.47;;;27.80;54.60;;;27.04;36.32;100069.22;10209862;28;96717;-90
2022/05/27 12:08:19;;;;;;;0.32;0.20;;;27.90;54.10;;;26.92;36.42;100058.63;10230054;28;97376;-88
2022/05/27 12:13:29;;;;;;;0.30;0.10;;;27.90;54.30;;;27.10;36.94;100049.84;10263383;28;96589;-90
2022/05/27 12:18:32;;;;;;;0.10;0.10;;;28.00;54.90;;;27.21;36.53;100042.44;10245298;28;98304;-88
2022/05/27 12:23:42;;;;;;;0.17;0.10;;;28.20;55.20;;;27.25;36.26;100037.25;10265074;28;96658;-87
2022/05/27 12:28:47;;;;;;;0.40;0.10;;;28.30;53.90;;;27.13;36.54;100030.22;10229738;28;98621;-89
2022/05/27 12:33:50;;;;;;;0.20;0.10;;;28.20;54.70;;;27.26;36.81;100023.31;10239152;28;96677;-89
2022/05/27 12:38:57;;;;;;;0.20;0.15;;;28.30;53.80;;;27.24;37.63;100020.06;10250770;28;96667;-89
2022/05/27 12:44:09;;;;;;;0.32;0.20;;;28.20;55.80;;;27.38;37.11;100010.13;10266230;28;96599;-86
2022/05/27 12:49:24;;;;;;;0.10;0.10;;;28.30;54.90;;;27.53;35.95;99992.84;10264832;28;96544;-89
2022/05/27 12:54:42;;;;;;;0.08;0.08;;;28.50;53.50;;;27.46;36.63;99979.50;10248360;28;96778;-89
2022/05/27 13:05:16;;;;;;;0.20;0.17;;;28.50;55.00;;;27.77;35.83;99967.53;10259682;28;97044;-88
2022/05/27 13:10:19;;;;;;;0.63;0.20;;;28.70;53.60;;;27.81;36.74;99953.03;10270558;28;97309;-87
2022/05/27 13:15:43;;;;;;;0.32;0.22;;;28.70;54.40;;;28.00;34.54;99936.72;10255592;28;96589;-87
2022/05/27 13:21:31;;;;;;;0.22;0.20;;;28.90;53.40;;;27.92;35.98;99930.00;10257504;28;96755;-87
2022/05/27 13:27:27;;;;;;;0.82;0.10;;;28.80;53.90;;;27.97;35.39;99920.94;10284084;28;98454;-86
2022/05/27 13:32:47;;;;;;;0.17;0.10;;;28.90;52.90;;;27.83;35.57;99917.25;10247276;28;97528;-86
2022/05/27 13:37:58;;;;;;;0.10;0.10;;;28.80;53.10;;;27.59;35.32;99919.91;10266761;28;96658;-87
2022/05/27 13:43:23;;;;;;;0.32;0.20;;;28.60;52.40;;;27.68;36.14;99899.09;10254558;28;96566;-89
2022/05/27 13:48:40;;;;;;;0.43;0.30;;;28.70;53.60;;;27.94;35.07;99897.72;10270364;28;96756;-87
2022/05/27 13:53:44;;;;;;;0.15;0.10;;;28.90;53.20;;;27.82;35.98;99882.84;10232565;28;98334;-88
2022/05/27 13:59:00;;;;;;;0.17;0.10;;;28.90;53.70;;;27.94;35.97;99872.34;10250330;28;96809;-89
2022/05/27 14:04:44;;;;;;;0.65;0.30;;;28.90;53.10;;;27.89;35.75;99867.78;10256746;28;98336;-87
2022/05/27 14:09:56;;;;;;;0.10;0.10;;;28.90;52.90;;;28.20;36.29;99864.69;10226838;28;96669;-88
2022/05/27 14:15:15;;;;;;;0.30;0.28;;;29.00;54.30;;;28.07;34.85;99857.16;10250937;28;98108;-88
2022/05/27 14:26:05;;;;;;;0.10;0.10;;;28.70;52.90;;;27.76;35.29;99835.69;10219580;28;97275;-88
2022/05/27 14:31:25;;;;;;;0.43;0.20;;;28.70;53.00;;;27.62;35.47;99832.00;10237897;28;96494;-88
2022/05/27 14:36:38;;;;;;;0.10;0.10;;;28.60;52.50;;;27.72;36.26;99829.22;10219515;28;96583;-88
2022/05/27 14:41:44;;;;;;;0.50;0.32;;;28.70;53.10;;;27.63;36.55;99814.53;10243661;28;96924;-87
2022/05/27 14:47:09;;;;;;;0.55;0.43;;;28.70;53.60;;;27.37;37.05;99803.88;10221404;28;96497;-89
2022/05/27 14:52:36;;;;;;;1.45;0.30;;;28.50;53.80;;;27.23;37.52;99797.50;10262332;28;96751;-87
2022/05/27 14:57:51;;;;;;;0.20;0.20;;;28.40;54.00;;;27.25;38.06;99797.19;10263797;28;96539;-87
2022/05/27 15:02:58;;;;;;;0.10;0.10;;;28.30;54.80;;;27.40;36.30;99795.09;10245138;28;96628;-87
2022/05/27 15:08:22;;;;;;;0.17;0.13;;;28.50;52.90;;;27.09;36.51;99799.25;10221905;28;96705;-88
2022/05/27 15:13:44;;;;;;;0.50;0.20;;;28.20;52.80;;;26.68;36.96;99794.09;10264706;28;96678;-87
2022/05/27 15:18:54;;;;;;;0.63;0.20;;;27.70;53.60;;;26.49;38.67;99791.22;10239190;28;96622;-86
2022/05/27 15:24:03;;;;;;;0.35;0.20;;;27.50;55.40;;;26.34;39.10;99781.22;10249575;28;96698;-85
2022/05/27 15:34:36;;;;;;;0.85;0.22;;;27.20;55.20;;;26.01;39.31;99765.63;10261001;28;97441;-85
2022/05/27 15:39:39;;;;;;;0.60;0.40;;;27.00;55.40;;;26.32;39.88;99758.06;10255629;28;96582;-86
2022/05/27 15:44:43;;;;;;;0.40;0.30;;;27.10;57.00;;;26.49;38.88;99757.72;10240684;28;97346;-86
2022/05/27 15:49:45;;;;;;;0.20;0.10;;;27.30;55.80;;;26.52;38.43;99740.81;10275188;28;96623;-86
2022/05/27 15:54:48;;;;;;;0.30;0.20;;;27.40;55.30;;;26.34;38.75;99740.38;10260264;28;97408;-86
2022/05/27 15:59:52;;;;;;;0.25;0.20;;;27.20;55.40;;;26.13;39.36;99741.59;10248311;28;96652;-86
2022/05/27 16:04:55;;;;;;;0.05;0.05;;;27.10;55.70;;;25.95;39.45;99726.72;10256816;28;96552;-86
2022/05/27 16:09:59;;;;;;;0.38;0.20;;;26.90;56.20;;;25.89;40.75;99722.41;10252088;28;96403;-86
2022/05/27 16:15:04;;;;;;;2.08;0.30;;;26.90;57.20;;;25.84;41.17;99716.97;10189137;28;96897;-87
2022/05/27 16:20:14;;;;;;;0.47;0.30;;;26.80;57.50;;;25.93;41.40;99707.13;10238111;28;97846;-87
2022/05/27 16:25:19;;;;;;;0.20;0.20;;;26.80;57.80;;;26.10;40.31;99704.06;10263723;28;96668;-87
2022/05/27 16:30:26;;;;;;;0.00;0.00;;;27.00;57.20;;;26.28;39.98;99703.38;10246836;28;97731;-89
2022/05/27 16:35:31;;;;;;;0.10;0.10;;;27.10;57.00;;;26.56;39.88;99699.06;10255800;28;96612;-88
2022/05/27 16:40:35;;;;;;;0.63;0.30;;;27.30;56.80;;;26.66;39.00;99698.19;10267164;28;96690;-87
2022/05/27 16:45:38;;;;;;;0.10;0.10;;;27.40;56.30;;;26.69;38.84;99703.09;10263318;28;96753;-86
2022/05/27 16:50:42;;;;;;;0.10;0.10;;;27.50;55.60;;;26.61;38.52;99701.75;10227001;28;96963;-86
2022/05/27 16:55:45;;;;;;;0.30;0.30;;;27.40;55.00;;;26.52;38.00;99706.22;10240317;28;97550;-86
2022/05/27 17:00:48;;;;;;;0.40;0.30;;;27.40;54.70;;;26.23;39.06;99711.56;10253483;28;97933;-86
2022/05/27 17:05:51;;;;;;;0.40;0.22;;;27.10;55.60;;;25.94;39.29;99711.47;10262942;28;96795;-85
2022/05/27 17:10:56;;;;;;;0.15;0.10;;;26.80;56.00;;;25.74;40.17;99703.44;10258129;28;98134;-86
2022/05/27 17:15:59;;;;;;;0.00;0.00;;;26.60;56.60;;;25.57;40.59;99709.19;10250928;28;96594;-86
2022/05/27 17:21:04;;;;;;;0.10;0.10;;;26.40;56.80;;;25.33;40.42;99707.09;10249518;28;98183;-86
2022/05/27 17:26:13;;;;;;;0.10;0.10;;;26.20;56.90;;;25.16;40.90;99713.94;10250164;28;97249;-86
2022/05/27 17:31:17;;;;;;;0.25;0.10;;;26.00;57.40;;;25.02;41.06;99719.13;10236196;28;98158;-86
2022/05/27 17:36:21;;;;;;;0.20;0.20;;;25.90;57.80;;;24.87;42.08;99721.84;10239649;28;96628;-88
2022/05/27 17:41:24;;;;;;;0.65;0.40;;;25.70;58.40;;;24.64;42.41;99725.94;10269965;28;96690;-88
2022/05/27 17:51:52;;;;;;;0.47;0.25;;;25.40;60.00;;;24.28;43.54;99740.25;10253812;28;96670;-86
2022/05/27 17:56:55;;;;;;;0.10;0.10;;;25.20;59.70;;;24.19;43.96;99736.47;10247345;28;97110;-87
2022/05/27 18:01:58;;;;;;;0.47;0.30;;;25.10;60.00;;;24.06;43.84;99736.97;10272038;28;96596;-87
2022/05/27 18:07:06;;;;;;;0.10;0.10;;;25.00;59.70;;;23.94;44.10;99730.97;10259118;28;96441;-88
2022/05/27 18:12:15;;;;;;;0.15;0.10;;;24.80;60.00;;;23.81;43.73;99736.88;10220731;28;98045;-87
2022/05/27 18:17:18;;;;;;;0.47;0.30;;;24.70;59.80;;;23.69;43.66;99735.25;10222933;28;96703;-87
2022/05/27 18:22:21;;;;;;;0.25;0.13;;;24.60;59.40;;;23.57;43.67;99744.63;10252028;28;96626;-87
2022/05/27 18:27:24;;;;;;;0.52;0.20;;;24.50;60.10;;;23.44;43.73;99746.75;10249147;28;96793;-88
2022/05/27 18:32:28;;;;;;;0.00;0.00;;;24.40;59.40;;;23.35;43.68;99751.03;10241147;28;97211;-87
2022/05/27 18:37:31;;;;;;;0.10;0.10;;;24.30;59.30;;;23.26;43.57;99747.19;10247021;28;96527;-87
2022/05/27 18:42:37;;;;;;;0.00;0.00;;;24.30;59.20;;;23.13;43.50;99748.47;10229337;28;96870;-87
2022/05/27 18:47:40;;;;;;;0.00;0.00;;;24.10;59.10;;;23.03;43.63;99745.69;10230773;28;97142;-87
2022/05/27 18:52:44;;;;;;;0.13;0.10;;;24.00;58.80;;;22.95;43.75;99732.63;10253152;28;96557;-87
2022/05/27 18:57:48;;;;;;;0.10;0.10;;;24.00;59.30;;;22.88;43.76;99738.25;10267661;28;96569;-87
2022/05/27 19:02:51;;;;;;;0.10;0.00;;;23.90;59.10;;;22.82;44.50;99750.13;10217892;28;96679;-87
2022/05/27 19:07:56;;;;;;;0.10;0.10;;;23.90;59.70;;;22.75;44.46;99757.63;10267877;28;96589;-87
2022/05/27 19:13:00;;;;;;;0.20;0.20;;;23.80;59.70;;;22.71;44.50;99767.34;10268525;28;97297;-87
2022/05/27 19:18:03;;;;;;;0.50;0.35;;;23.70;59.70;;;22.65;44.35;99758.38;10254382;28;96833;-87
2022/05/27 19:23:06;;;;;;;0.05;0.03;;;23.70;60.00;;;22.60;44.68;99777.28;10234838;28;96631;-87
2022/05/27 19:28:15;;;;;;;0.22;0.22;;;23.70;60.40;;;22.49;45.62;99770.16;10268110;28;96615;-87
2022/05/27 19:33:20;;;;;;;0.40;0.30;;;23.50;60.80;;;22.32;45.88;99775.66;10247346;28;96710;-87
2022/05/27 19:38:24;;;;;;;1.67;0.90;;;23.50;61.50;;;22.10;46.52;99783.00;10265158;28;97160;-87
2022/05/27 19:43:27;;;;;;;0.00;0.00;;;23.20;62.20;;;21.88;47.17;99782.97;10236865;28;98339;-87
2022/05/27 19:48:31;;;;;;;0.43;0.30;;;23.00;62.90;;;21.66;47.70;99793.81;10221535;28;97318;-86
2022/05/27 19:53:34;;;;;;;0.00;0.00;;;22.80;63.30;;;21.49;48.25;99803.84;10266125;28;96566;-86
2022/05/27 20:09:21;;;;;;;0.43;0.20;;;22.20;64.20;;;20.94;47.94;99827.00;10262302;28;96657;-87
2022/05/27 20:14:24;;;;;;;0.32;0.20;;;22.10;62.80;;;20.90;47.96;99828.56;10264623;28;97462;-88
2022/05/27 20:19:27;;;;;;;0.00;0.00;;;22.00;63.00;;;20.83;47.82;99839.53;10230922;28;96772;-87
2022/05/27 20:24:30;;;;;;;0.10;0.10;;;21.90;62.80;;;20.75;47.73;99868.78;10274641;28;96502;-88
2022/05/27 20:29:34;;;;;;;0.25;0.25;;;21.80;62.80;;;20.66;47.71;99875.66;10221058;28;96551;-87
2022/05/27 20:34:38;;;;;;;0.10;0.10;;;21.60;63.40;;;20.48;48.90;99869.38;10235994;28;96778;-86
2022/05/27 20:39:46;;;;;;;0.28;0.20;;;21.40;64.60;;;20.26;49.82;99871.06;10265917;28;98480;-86
2022/05/27 20:44:50;;;;;;;0.20;0.20;;;21.20;66.70;;;19.97;50.67;99886.38;10244361;28;96857;-86
2022/05/27 20:49:54;;;;;;;0.10;0.10;;;21.00;66.60;;;19.77;51.12;99900.22;10233544;28;96823;-86
2022/05/27 20:54:57;;;;;;;0.10;0.10;;;20.70;66.80;;;19.58;51.14;99901.38;10266725;28;96492;-86
2022/05/27 21:00:01;;;;;;;0.20;0.20;;;20.60;67.00;;;19.40;51.69;99892.34;10229912;28;97190;-87
2022/05/27 21:05:05;;;;;;;0.00;0.00;;;20.40;67.60;;;19.22;52.03;99909.41;10249022;28;96465;-86
2022/05/27 21:10:13;;;;;;;0.30;0.13;;;20.20;68.40;;;19.07;52.88;99908.19;10263307;28;96942;-87
2022/05/27 21:15:16;;;;;;;0.10;0.10;;;20.10;68.80;;;18.94;53.11;99928.06;10236112;28;96761;-86
2022/05/27 21:20:20;;;;;;;0.32;0.10;;;19.90;69.10;;;18.74;53.47;99936.44;10251554;28;96512;-85
2022/05/27 21:25:23;;;;;;;0.00;0.00;;;19.70;69.80;;;18.54;53.66;99922.38;10277660;28;96527;-87
2022/05/27 21:30:26;;;;;;;0.70;0.10;;;19.60;69.60;;;18.37;54.13;99933.75;10267935;28;96556;-85
2022/05/27 21:35:29;;;;;;;0.25;0.10;;;19.40;69.80;;;18.22;54.41;99957.50;10269066;28;96655;-85
2022/05/27 21:40:36;;;;;;;0.35;0.10;;;19.30;70.50;;;18.05;55.18;99964.50;10230930;28;97031;-86
2022/05/27 21:45:39;;;;;;;0.00;0.00;;;19.10;70.90;;;17.88;55.36;99957.03;10248527;28;96672;-85
2022/05/27 21:50:42;;;;;;;0.00;0.00;;;18.90;71.30;;;17.85;55.43;99960.16;10255154;28;97251;-86
2022/05/27 21:55:45;;;;;;;0.00;0.00;;;18.90;71.30;;;17.76;55.96;99968.75;10219400;28;97684;-84
2022/05/27 22:00:49;;;;;;;0.20;0.08;;;18.80;71.90;;;17.72;55.63;99979.09;10248319;28;96868;-85
2022/05/27 22:05:53;;;;;;;0.00;0.00;;;18.80;71.50;;;17.63;55.67;99983.06;10266904;28;96747;-85
2022/05/27 22:16:19;;;;;;;0.00;0.00;;;18.60;71.90;;;17.48;56.13;99978.00;10253613;28;97677;-85
2022/05/27 22:21:23;;;;;;;0.10;0.10;;;18.50;71.60;;;17.38;56.56;99988.41;10238383;28;98292;-85
2022/05/27 22:26:26;;;;;;;0.00;0.00;;;18.50;72.60;;;17.24;56.75;100008.34;10238079;28;96598;-85
2022/05/27 22:31:29;;;;;;;0.00;0.00;;;18.40;72.60;;;17.08;57.02;100001.59;10256401;28;97444;-85